createdAt,value
2022-08-25T00:48:45.933Z,3.72
2022-08-25T01:45:38.047Z,4.25
2022-08-25T02:47:14.801Z,4.63
2022-08-25T02:54:35.746Z,4.70
2022-08-25T02:56:18.251Z,4.65
2022-08-25T02:56:50.973Z,5.10
2022-08-25T02:57:31.751Z,4.35
2022-08-25T03:07:28.152Z,4.93
2022-08-25T03:16:14.290Z,4.30
2022-08-25T03:16:31.788Z,4.85
2022-08-25T03:18:44.695Z,5.10
2022-08-25T03:20:51.075Z,5.30
2022-08-25T03:22:56.530Z,5.05
2022-08-25T03:25:24.349Z,5.30
2022-08-25T03:27:31.931Z,5.68
2022-08-25T03:29:39.010Z,4.95
2022-08-25T03:31:47.330Z,6.05
2022-08-25T03:33:55.417Z,6.10
2022-08-25T03:36:07.471Z,5.60
2022-08-25T03:38:12.779Z,5.28
2022-08-25T03:40:19.225Z,5.20
2022-08-25T03:42:25.016Z,5.32
2022-08-25T03:44:38.186Z,4.78
2022-08-25T03:46:44.214Z,5.50
2022-08-25T03:48:49.140Z,5.40
2022-08-25T03:53:31.880Z,5.53
2022-08-25T03:55:43.207Z,5.32
2022-08-25T03:57:52.750Z,5.70
2022-08-25T04:00:00.546Z,5.95
2022-08-25T04:02:08.437Z,5.35
2022-08-25T04:04:53.375Z,5.78
2022-08-25T04:07:00.961Z,5.20
2022-08-25T04:09:24.664Z,5.97
2022-08-25T04:11:46.104Z,5.75
2022-08-25T04:13:53.132Z,5.75
2022-08-25T04:15:58.453Z,6.25
2022-08-25T04:18:05.042Z,6.30
2022-08-25T04:20:11.223Z,5.70
2022-08-25T04:24:43.492Z,6.07
2022-08-25T04:26:51.352Z,5.35
2022-08-25T04:28:57.139Z,6.75
2022-08-25T04:31:02.529Z,5.53
2022-08-25T04:33:45.850Z,6.82
2022-08-25T04:35:53.927Z,6.40
2022-08-25T04:38:05.812Z,6.50
2022-08-25T04:40:13.853Z,6.13
2022-08-25T04:42:21.466Z,7.00
2022-08-25T04:44:28.654Z,6.70
2022-08-25T04:46:41.678Z,7.13
2022-08-25T04:48:52.554Z,6.80
2022-08-25T04:51:02.892Z,7.13
2022-08-25T04:53:14.544Z,6.72
2022-08-25T04:55:33.390Z,7.15
2022-08-25T04:57:38.568Z,6.57
2022-08-25T04:59:49.416Z,7.18
2022-08-25T05:01:58.131Z,6.18
2022-08-25T05:04:08.751Z,6.40
2022-08-25T05:06:18.869Z,7.30
2022-08-25T05:08:26.885Z,7.07
2022-08-25T05:10:36.955Z,7.18
2022-08-25T05:13:02.656Z,7.35
2022-08-25T05:15:28.849Z,7.57
2022-08-25T05:17:35.778Z,7.43
2022-08-25T05:19:44.741Z,8.07
2022-08-25T05:21:57.785Z,7.60
2022-08-25T05:24:20.100Z,7.07
2022-08-25T05:26:35.606Z,7.00
2022-08-25T05:28:58.789Z,8.43
2022-08-25T05:31:14.895Z,7.57
2022-08-25T05:33:20.484Z,7.82
2022-08-25T05:35:26.953Z,7.68
2022-08-25T05:37:31.839Z,8.32
2022-08-25T05:39:38.131Z,8.00
2022-08-25T05:42:17.946Z,7.78
2022-08-25T05:45:29.885Z,8.43
2022-08-25T05:47:37.691Z,8.30
2022-08-25T05:49:43.794Z,8.13
2022-08-25T05:51:54.943Z,7.30
2022-08-25T05:54:02.739Z,7.88
2022-08-25T05:56:09.664Z,8.40
2022-08-25T05:58:28.549Z,7.70
2022-08-25T06:00:38.628Z,7.85
2022-08-25T06:03:31.955Z,7.43
2022-08-25T06:08:02.360Z,7.35
2022-08-25T06:10:26.419Z,8.20
2022-08-25T06:12:33.705Z,8.52
2022-08-25T06:14:50.631Z,8.07
2022-08-25T06:16:57.907Z,8.57
2022-08-25T06:19:11.374Z,8.43
2022-08-25T06:21:19.891Z,8.02
2022-08-25T06:23:35.923Z,8.20
2022-08-25T06:25:45.072Z,8.18
2022-08-25T06:27:55.762Z,7.82
2022-08-25T06:30:07.818Z,8.23
2022-08-25T06:32:12.095Z,7.82
2022-08-25T06:34:41.996Z,8.30
2022-08-25T06:36:56.412Z,7.78
2022-08-25T06:39:06.676Z,8.60
2022-08-25T06:41:40.060Z,8.77
2022-08-25T06:44:14.439Z,8.30
2022-08-25T06:49:08.320Z,8.77
2022-08-25T06:51:14.747Z,8.85
2022-08-25T06:53:30.975Z,8.55
2022-08-25T06:55:44.299Z,8.45
2022-08-25T06:57:47.752Z,8.55
2022-08-25T07:02:48.348Z,8.88
2022-08-25T07:07:49.912Z,8.90
2022-08-25T07:09:55.981Z,9.27
2022-08-25T07:15:20.877Z,9.05
2022-08-25T07:23:33.289Z,8.60
2022-08-25T07:27:43.439Z,8.40
2022-08-25T07:29:42.598Z,8.98
2022-08-25T07:37:49.325Z,8.30
2022-08-25T07:45:41.123Z,8.43
2022-08-25T07:47:55.450Z,8.02
2022-08-25T08:09:38.121Z,8.75
2022-08-25T08:12:36.060Z,8.05
2022-08-25T08:15:10.326Z,7.72
2022-08-25T08:17:50.791Z,7.85
2022-08-25T08:20:03.930Z,7.85
2022-08-25T08:27:48.917Z,7.63
2022-08-25T08:33:16.243Z,8.18
2022-08-25T08:35:24.635Z,8.25
2022-08-25T08:37:41.471Z,7.60
2022-08-25T08:39:47.756Z,8.07
2022-08-25T08:43:19.033Z,7.72
2022-08-25T08:49:15.563Z,7.60
2022-08-25T08:54:26.457Z,7.20
2022-08-25T08:57:11.821Z,7.45
2022-08-25T08:59:30.253Z,7.90
2022-08-25T09:02:13.716Z,7.15
2022-08-25T09:05:05.550Z,7.63
2022-08-25T09:07:44.809Z,7.70
2022-08-25T09:10:17.808Z,7.45
2022-08-25T09:13:35.718Z,7.38
2022-08-25T09:16:38.142Z,7.32
2022-08-25T09:30:29.743Z,6.90
2022-08-25T09:38:30.502Z,7.93
2022-08-25T09:41:33.842Z,7.30
2022-08-25T09:43:52.048Z,7.70
2022-08-25T09:46:40.333Z,7.28
2022-08-25T09:49:33.776Z,7.15
2022-08-25T09:52:05.662Z,7.93
2022-08-25T09:55:24.279Z,7.53
2022-08-25T09:58:22.205Z,7.07
2022-08-25T10:01:34.921Z,7.35
2022-08-25T10:03:40.159Z,7.43
2022-08-25T10:06:12.947Z,6.70
2022-08-25T10:10:55.851Z,6.63
2022-08-25T10:13:22.552Z,6.47
2022-08-25T10:16:33.562Z,6.78
2022-08-25T10:19:51.814Z,6.90
2022-08-25T10:22:42.269Z,6.70
2022-08-25T10:25:38.254Z,7.07
2022-08-25T10:33:51.363Z,6.95
2022-08-25T10:36:12.266Z,7.25
2022-08-25T10:48:05.054Z,7.70
2022-08-25T10:50:37.465Z,7.10
2022-08-25T10:52:51.336Z,7.38
2022-08-25T10:55:00.766Z,7.40
2022-08-25T10:57:46.562Z,7.07
2022-08-25T11:13:36.873Z,6.85
2022-08-25T11:16:26.911Z,6.70
2022-08-25T11:19:20.983Z,7.43
2022-08-25T11:21:55.317Z,7.45
2022-08-25T11:24:29.256Z,7.03
2022-08-25T11:27:15.871Z,7.28
2022-08-25T11:29:44.391Z,7.00
2022-08-25T11:32:48.159Z,6.95
2022-08-25T11:35:34.630Z,7.10
2022-08-25T11:41:11.329Z,7.25
2022-08-25T11:47:21.718Z,7.10
2022-08-25T11:50:10.639Z,6.40
2022-08-25T11:55:51.216Z,6.10
2022-08-25T12:04:45.083Z,6.57
2022-08-25T12:07:40.506Z,6.53
2022-08-25T12:19:54.662Z,6.60
2022-08-25T12:29:18.230Z,6.10
2022-08-25T12:32:09.390Z,6.03
2022-08-25T12:41:31.099Z,5.10
2022-08-25T12:44:23.292Z,4.95
2022-08-25T12:59:26.141Z,5.05
2022-08-25T13:01:54.401Z,4.97
2022-08-25T13:04:30.687Z,4.90
2022-08-25T13:06:49.623Z,5.03
2022-08-25T13:09:43.156Z,4.95
2022-08-25T13:11:56.492Z,5.35
2022-08-25T13:14:50.238Z,4.70
2022-08-25T13:17:35.434Z,4.80
2022-08-25T13:19:48.263Z,5.43
2022-08-25T13:25:13.909Z,4.93
2022-08-25T13:27:41.484Z,5.13
2022-08-25T13:35:32.195Z,5.85
2022-08-25T13:38:16.549Z,5.25
2022-08-25T13:55:58.145Z,5.00
2022-08-25T13:58:39.294Z,4.80
2022-08-25T14:05:11.062Z,5.40
2022-08-25T14:13:44.643Z,4.60
2022-08-25T14:21:14.591Z,4.72
2022-08-25T14:26:27.135Z,5.13
2022-08-25T14:29:44.270Z,5.40
2022-08-25T14:35:17.688Z,4.82
2022-08-25T14:52:44.474Z,5.20
2022-08-25T14:58:10.017Z,4.65
2022-08-25T15:04:03.523Z,4.50
2022-08-25T15:06:42.053Z,4.55
2022-08-25T15:21:47.407Z,4.75
2022-08-25T15:43:33.997Z,5.60
2022-08-25T15:56:27.395Z,5.28
2022-08-25T17:16:59.833Z,4.82
2022-08-25T17:25:01.174Z,4.78
2022-08-25T17:36:18.266Z,4.32
2022-08-25T17:41:06.671Z,4.45
2022-08-25T17:44:05.535Z,4.47
2022-08-25T17:46:39.148Z,4.70
2022-08-25T17:49:28.821Z,4.55
2022-08-25T17:52:05.837Z,4.63
2022-08-25T17:54:34.305Z,4.55
2022-08-25T18:00:29.077Z,4.75
2022-08-25T18:08:32.341Z,4.60
2022-08-25T18:11:02.076Z,4.47
2022-08-25T18:13:07.884Z,4.60
2022-08-25T18:15:12.275Z,4.80
2022-08-25T18:17:49.215Z,4.93
2022-08-25T18:36:03.310Z,4.80
2022-08-25T18:45:12.634Z,4.95
2022-08-25T19:06:56.568Z,5.53
2022-08-25T19:16:34.439Z,5.50
2022-08-25T19:19:16.763Z,5.50
2022-08-25T19:55:54.270Z,4.85
2022-08-25T20:09:59.547Z,4.88
2022-08-25T20:29:59.646Z,4.60
2022-08-25T20:42:24.839Z,4.97
2022-08-25T20:45:24.635Z,4.70
2022-08-25T20:48:07.894Z,4.38
2022-08-25T20:57:33.401Z,4.88
2022-08-25T21:19:04.944Z,4.50
2022-08-25T21:32:11.248Z,4.85
2022-08-25T21:44:31.201Z,4.90
2022-08-25T21:46:53.773Z,5.07
2022-08-25T21:48:58.254Z,4.80
2022-08-25T21:55:29.651Z,5.20
2022-08-25T22:18:52.414Z,4.78
2022-08-25T22:28:50.683Z,4.63
2022-08-25T22:49:22.663Z,5.22
2022-08-25T22:54:18.389Z,4.85
2022-08-25T23:06:01.313Z,4.75
2022-08-25T23:08:39.114Z,4.45
2022-08-25T23:11:26.061Z,4.60
2022-08-25T23:42:13.311Z,5.00
2022-08-25T23:45:01.338Z,5.10
2022-08-25T23:47:23.670Z,5.10
2022-08-25T23:49:33.704Z,5.60
2022-08-25T23:52:17.345Z,5.05
